Monday, January 21, 2019, 5:50 PM EST
Back to Local

KMLT, Millinocket Municipal Airport

Location: Millinocket, ME, United States Lat: 45.65
Local Time: 5:50 PM EST (22:50 GMT) Lon: -68.7
Time Zone: US/Eastern Elev: 406 ft

Show me the last for .
Show Decoded

2019-01-21 16:53 METAR KMLT 212153Z AUTO 30011G18KT 7SM OVC060 M16/M21 A2969 RMK AO2 SLP069
                 T11611211 =
2019-01-21 16:28 METAR KMLT 212128Z AUTO 30012G21KT 260V320 3SM HZ OVC050 M16/M21 A2968 RMK AO2
                 T11611211 =
2019-01-21 16:14 METAR KMLT 212114Z AUTO 30013G20KT 2SM HZ OVC050 M16/M21 A2968 RMK AO2 T11611211
                 =
2019-01-21 15:53 METAR KMLT 212053Z AUTO 30011G18KT 3SM HZ OVC050 M16/M21 A2966 RMK AO2
                 UPB1958E05B18E24 SLP060 P0000 60000 T11611206 53034 =
2019-01-21 15:30 METAR KMLT 212030Z AUTO 30010G16KT 3SM HZ FEW034 OVC050 M16/M21 A2965 RMK AO2
                 UPB1958E05B18E24 P0000 T11561206 =
2019-01-21 15:12 METAR KMLT 212012Z AUTO 30014G18KT 1 3/4SM HZ BKN037 OVC050 M16/M20 A2963 RMK
                 AO2 UPB1958E05 P0000 T11561200 =
2019-01-21 14:53 METAR KMLT 211953Z AUTO 29010G21KT 1SM HZ BKN030 OVC038 M15/M19 A2962 RMK AO2
                 UPB33E44SNB11E21 SLP042 P0000 T11501194 =
2019-01-21 14:44 METAR KMLT 211944Z AUTO 29009G19KT 1 1/4SM HZ OVC033 M15/M19 A2961 RMK AO2
                 UPB33E44SNB11E21 P0000 T11501194 =
2019-01-21 14:29 METAR KMLT 211929Z AUTO 29012KT 1 3/4SM HZ OVC035 M15/M19 A2960 RMK AO2 SNB11E21
                 P0000 T11501194 =
2019-01-21 14:15 METAR KMLT 211915Z AUTO 30013G21KT 1SM -SN OVC034 M15/M19 A2960 RMK AO2 SNB11
                 P0000 T11501194 =
2019-01-21 14:00 METAR KMLT 211900Z AUTO 30012G21KT 1 1/2SM HZ OVC036 M14/M19 A2959 RMK AO2
                 T11441189 =
2019-01-21 13:53 METAR KMLT 211853Z AUTO 30012G19KT 2SM HZ BKN037 OVC045 M14/M19 A2959 RMK AO2
                 SLP033 T11441189 =
2019-01-21 13:43 METAR KMLT 211843Z AUTO 30008G20KT 250V320 2 1/2SM HZ BKN037 OVC044 M14/M19
                 A2958 RMK AO2 T11441189 =
2019-01-21 12:53 METAR KMLT 211753Z AUTO 30011KT 10SM FEW036 OVC060 M13/M19 A2956 RMK AO2 SLP025
                 60000 T11331194 11133 21144 51009 =
2019-01-21 11:53 METAR KMLT 211653Z AUTO 29011KT 10SM SCT034 OVC060 M13/M19 A2956 RMK AO2 SLP024
                 T11331194 =
2019-01-21 10:53 METAR KMLT 211553Z AUTO 31011G18KT 10SM OVC060 M14/M19 A2956 RMK AO2 SLP023
                 T11391194 =
2019-01-21 09:53 METAR KMLT 211453Z AUTO 30009KT 9SM OVC060 M14/M19 A2954 RMK AO2 SNE25 SLP016
                 P0000 60000 T11391189 51018 =
2019-01-21 09:10 METAR KMLT 211410Z AUTO 30011KT 3SM -SN SCT043 OVC060 M14/M19 A2952 RMK AO2
                 P0000 T11391189 =
2019-01-21 08:53 METAR KMLT 211353Z AUTO 31007G16KT 2SM -SN SCT043 BKN050 OVC060 M14/M18 A2952
                 RMK AO2 SLP009 P0000 T11391183 =
2019-01-21 08:40 METAR KMLT 211340Z AUTO 30009G15KT 1SM -SN BKN039 OVC060 M14/M18 A2951 RMK AO2
                 P0000 T11441183 =
2019-01-21 08:29 METAR KMLT 211329Z AUTO 31008KT 1 1/4SM -SN BKN023 BKN035 OVC060 M14/M18 A2950
                 RMK AO2 P0000 T11441183 =
2019-01-21 07:53 METAR KMLT 211253Z AUTO 31008KT 3/4SM -SN OVC028 M14/M18 A2948 RMK AO2 SNB30
                 SLP997 P0000 T11441183 =
2019-01-21 07:50 METAR KMLT 211250Z AUTO 30009KT 1SM -SN OVC030 M14/M18 A2948 RMK AO2 SNB30 P0000
                 =
2019-01-21 07:37 METAR KMLT 211237Z AUTO 30011KT 1 3/4SM -SN OVC040 M14/M19 A2947 RMK AO2 SNB30
                 P0000 T11441189 =
2019-01-21 06:53 METAR KMLT 211153Z AUTO 31010KT 6SM HZ OVC043 M14/M19 A2945 RMK AO2 SLP987
                 T11441189 11106 21144 52023 =
2019-01-21 05:53 METAR KMLT 211053Z AUTO 30009KT 10SM OVC043 M14/M18 A2942 RMK AO2 SLP978
                 T11391183 =
2019-01-21 04:53 METAR KMLT 210953Z AUTO 30007KT 10SM OVC041 M13/M18 A2941 RMK AO2 SLP972
                 T11331178 =
2019-01-21 03:53 METAR KMLT 210853Z AUTO 29008G16KT 8SM OVC040 M12/M17 A2938 RMK AO2 SLP963
                 T11221167 53011 =
2019-01-21 02:53 METAR KMLT 210753Z AUTO 34013KT 10SM OVC041 M11/M17 A2936 RMK AO2 SLP957
                 T11061167 =
2019-01-21 01:53 METAR KMLT 210653Z AUTO 34012G19KT 10SM OVC031 M11/M17 A2935 RMK AO2 SLP954
                 T11061167 =
2019-01-21 01:48 METAR KMLT 210648Z AUTO 35010G19KT 10SM OVC031 M11/M17 A2935 RMK AO2 =
2019-01-21 01:25 METAR KMLT 210625Z AUTO 35010G22KT 10SM OVC029 M11/M16 A2933 RMK AO2 T11061161 =
2019-01-21 00:53 METAR KMLT 210553Z AUTO 35013G20KT 10SM OVC031 M11/M16 A2931 RMK AO2 SLP938
                 60000 T11061161 11100 21139 51005 =
2019-01-20 23:53 METAR KMLT 210453Z AUTO 34015G28KT 9SM OVC036 M10/M16 A2930 RMK AO2 PK WND
                 32028/0451 SLP935 T11001156 411001200 =
2019-01-20 22:53 METAR KMLT 210353Z AUTO 30007KT 5SM HZ OVC044 M13/M16 A2931 RMK AO2
                 SNE0256B21E42 SLP940 P0000 T11281161 =
2019-01-20 22:42 METAR KMLT 210342Z AUTO 30009KT 4SM HZ SCT035 OVC047 M13/M16 A2931 RMK AO2
                 SNE0256B21E42 P0000 T11331161 =
2019-01-20 22:26 METAR KMLT 210326Z AUTO 30007KT 2 1/2SM -SN SCT018 OVC035 M13/M16 A2932 RMK AO2
                 SNE0256B21 P0000 T11331161 =
2019-01-20 22:17 METAR KMLT 210317Z AUTO 30007KT 4SM HZ BKN018 OVC035 M13/M16 A2931 RMK AO2
                 SNE0256 P0000 T11331161 =
2019-01-20 22:07 METAR KMLT 210307Z AUTO 31008KT 2 1/2SM HZ OVC018 M13/M16 A2930 RMK AO2 SNE0256
                 P0000 T11331161 =
2019-01-20 21:53 METAR KMLT 210253Z AUTO 29006KT 1 1/2SM -SN BR OVC018 M14/M16 A2929 RMK AO2
                 SLP934 P0000 60000 T11391161 58008 =
2019-01-20 21:30 METAR KMLT 210230Z AUTO 31009KT 1SM -SN VV015 M13/M16 A2929 RMK AO2 P0000
                 T11331161 =
2019-01-20 21:18 METAR KMLT 210218Z AUTO 30010KT 3/4SM -SN BR VV014 M13/M16 A2930 RMK AO2 P0000
                 T11331156 =
2019-01-20 21:11 METAR KMLT 210211Z AUTO 30009KT 3/4SM -SN VV015 M13/M16 A2930 RMK AO2 P0000
                 T11281156 =
2019-01-20 21:03 METAR KMLT 210203Z AUTO 29008KT 1SM -SN BR VV018 M12/M14 A2931 RMK AO2 P0000
                 T11221144 =
2019-01-20 20:53 METAR KMLT 210153Z AUTO 30007KT 1 3/4SM -SN BR OVC020 M12/M14 A2930 RMK AO2
                 SNB0058 SLP938 P0000 T11221144 =
2019-01-20 20:17 METAR KMLT 210117Z AUTO 33010G18KT 1 3/4SM -SN OVC022 M10/M13 A2931 RMK AO2
                 SNB0058 P0000 T11001133 =
2019-01-20 20:10 METAR KMLT 210110Z AUTO 33013G18KT 1 1/4SM -SN OVC020 M11/M13 A2930 RMK AO2
                 SNB0058 P0000 T11061133 =
2019-01-20 20:03 METAR KMLT 210103Z AUTO 34013G18KT 1 1/2SM -SN OVC018 M11/M13 A2931 RMK AO2
                 SNB0058 P0000 T11061133 =
2019-01-20 19:53 METAR KMLT 210053Z AUTO 33011KT 1 1/4SM BLSN OVC016 M11/M13 A2932 RMK AO2 SLP941
                 T11061133 =
2019-01-20 19:50 METAR KMLT 210050Z AUTO 33013KT 1 1/4SM BLSN OVC016 M11/M13 A2932 RMK AO2 =
2019-01-20 19:14 METAR KMLT 210014Z AUTO 33012KT 1 1/2SM BLSN BR OVC015 M12/M14 A2935 RMK AO2
                 T11171139 =
2019-01-20 19:04 METAR KMLT 210004Z AUTO 33010KT 1SM BLSN VV012 M12/M14 A2935 RMK AO2 T11171144 =
2019-01-20 18:53 METAR KMLT 202353Z AUTO 33011KT 3/4SM BLSN BR VV010 M12/M14 A2935 RMK AO2
                 UPE10B40E42 SLP953 P0000 60000 T11221144 11122 21178 55012 =
2019-01-20 18:51 METAR KMLT 202351Z AUTO 34010KT 3/4SM BLSN VV010 M12/M15 A2934 RMK AO2
                 UPE10B40E42 P0000 =
2019-01-20 18:33 METAR KMLT 202333Z AUTO 32010G17KT 1/2SM BLSN VV009 M13/M16 A2935 RMK AO2 UPE10
                 P0000 T11281156 =
2019-01-20 18:02 METAR KMLT 202302Z AUTO 34010G19KT 3/4SM UP VV013 M13/M16 A2935 RMK AO2 P0000
                 T11331161 =
2019-01-20 17:53 METAR KMLT 202253Z AUTO 33010KT 1SM UP VV014 M14/M17 A2936 RMK AO2 SLP958 P0000
                 T11391167 =

Support USWX by starting your Amazon purchase here.